Forest Acres, South Carolina
Current Conditions -  °F | °C
As of 5:53 PM on Thursday 23 Oct 2014 (Local Time) from KCUB Reporting Station
Clear Clear  
Wind Chill: 71°   Ceiling: Unl
Heat Index: 71°   Visibility: 10mi
Dew Point: 40°   Wind: 0mph
Humidity: 32%   Direction: NA
Pressure: 30"   Gusts: NA
Location:  34.025°N, 80.9562°W
Report Text: KCUB 232153Z AUTO 00000KT 10SM CLR 22/04 A3000 RMK AO2 SLP157 T02170044
Loading
Personal Weather Stations






























Interactive Weather Map
Tropical Storm Tracking
New forecast layout! Learn more

10-Day Weather Forecast

Advertisements
Track Severe Weather on mobile